sensor_id;sensor_type;location;lat;lon;timestamp;P1;durP1;ratioP1;P2;durP2;ratioP2
45893;SDS011;31603;51.148;16.932;2023-07-02T00:01:06;9.20;;;6.70;;
45893;SDS011;31603;51.148;16.932;2023-07-02T00:03:32;10.65;;;6.43;;
45893;SDS011;31603;51.148;16.932;2023-07-02T00:05:59;10.15;;;6.53;;
45893;SDS011;31603;51.148;16.932;2023-07-02T00:08:25;9.55;;;6.70;;
45893;SDS011;31603;51.148;16.932;2023-07-02T00:10:51;10.75;;;6.28;;
45893;SDS011;31603;51.148;16.932;2023-07-02T00:13:19;7.75;;;5.65;;
45893;SDS011;31603;51.148;16.932;2023-07-02T00:15:45;8.63;;;5.75;;
45893;SDS011;31603;51.148;16.932;2023-07-02T00:18:12;10.23;;;6.03;;
45893;SDS011;31603;51.148;16.932;2023-07-02T00:20:41;12.40;;;5.93;;
45893;SDS011;31603;51.148;16.932;2023-07-02T00:23:07;10.50;;;6.15;;
45893;SDS011;31603;51.148;16.932;2023-07-02T00:25:35;11.10;;;5.28;;
45893;SDS011;31603;51.148;16.932;2023-07-02T00:28:01;11.25;;;5.82;;
45893;SDS011;31603;51.148;16.932;2023-07-02T00:30:29;8.82;;;4.95;;
45893;SDS011;31603;51.148;16.932;2023-07-02T00:32:55;8.65;;;4.70;;
45893;SDS011;31603;51.148;16.932;2023-07-02T00:35:22;6.57;;;4.25;;
45893;SDS011;31603;51.148;16.932;2023-07-02T00:37:48;6.57;;;3.92;;
45893;SDS011;31603;51.148;16.932;2023-07-02T00:40:14;5.95;;;3.30;;
45893;SDS011;31603;51.148;16.932;2023-07-02T00:42:41;8.85;;;3.88;;
45893;SDS011;31603;51.148;16.932;2023-07-02T00:45:07;5.25;;;3.50;;
45893;SDS011;31603;51.148;16.932;2023-07-02T00:47:36;4.47;;;3.17;;
45893;SDS011;31603;51.148;16.932;2023-07-02T00:50:02;5.53;;;2.72;;
45893;SDS011;31603;51.148;16.932;2023-07-02T00:52:28;5.85;;;2.95;;
45893;SDS011;31603;51.148;16.932;2023-07-02T00:54:55;8.02;;;2.90;;
45893;SDS011;31603;51.148;16.932;2023-07-02T00:57:21;4.97;;;2.85;;
45893;SDS011;31603;51.148;16.932;2023-07-02T00:59:47;3.78;;;2.22;;
45893;SDS011;31603;51.148;16.932;2023-07-02T01:02:15;6.57;;;2.28;;
45893;SDS011;31603;51.148;16.932;2023-07-02T01:04:43;6.40;;;2.60;;
45893;SDS011;31603;51.148;16.932;2023-07-02T01:07:14;4.45;;;2.22;;
45893;SDS011;31603;51.148;16.932;2023-07-02T01:09:40;2.63;;;2.00;;
45893;SDS011;31603;51.148;16.932;2023-07-02T01:12:07;4.55;;;2.30;;
45893;SDS011;31603;51.148;16.932;2023-07-02T01:14:36;6.47;;;2.05;;
45893;SDS011;31603;51.148;16.932;2023-07-02T01:17:04;6.10;;;1.80;;
45893;SDS011;31603;51.148;16.932;2023-07-02T01:19:37;4.30;;;1.90;;
45893;SDS011;31603;51.148;16.932;2023-07-02T01:22:05;3.78;;;1.60;;
45893;SDS011;31603;51.148;16.932;2023-07-02T01:24:32;2.95;;;1.90;;
45893;SDS011;31603;51.148;16.932;2023-07-02T01:26:58;2.85;;;1.67;;
45893;SDS011;31603;51.148;16.932;2023-07-02T01:29:28;3.63;;;1.65;;
45893;SDS011;31603;51.148;16.932;2023-07-02T01:31:54;2.70;;;1.60;;
45893;SDS011;31603;51.148;16.932;2023-07-02T01:34:20;3.33;;;1.60;;
45893;SDS011;31603;51.148;16.932;2023-07-02T01:36:48;4.18;;;1.85;;
45893;SDS011;31603;51.148;16.932;2023-07-02T01:39:14;4.78;;;1.75;;
45893;SDS011;31603;51.148;16.932;2023-07-02T01:41:42;4.03;;;1.85;;
45893;SDS011;31603;51.148;16.932;2023-07-02T01:44:08;3.60;;;2.25;;
45893;SDS011;31603;51.148;16.932;2023-07-02T01:46:35;4.30;;;2.08;;
45893;SDS011;31603;51.148;16.932;2023-07-02T01:49:01;3.33;;;1.92;;
45893;SDS011;31603;51.148;16.932;2023-07-02T01:51:28;6.00;;;2.50;;
45893;SDS011;31603;51.148;16.932;2023-07-02T01:53:56;3.30;;;2.10;;
45893;SDS011;31603;51.148;16.932;2023-07-02T01:56:22;4.57;;;2.22;;
45893;SDS011;31603;51.148;16.932;2023-07-02T01:58:48;5.20;;;2.35;;
45893;SDS011;31603;51.148;16.932;2023-07-02T02:01:15;3.30;;;2.10;;
45893;SDS011;31603;51.148;16.932;2023-07-02T02:03:41;3.85;;;2.17;;
45893;SDS011;31603;51.148;16.932;2023-07-02T02:06:08;2.95;;;2.17;;
45893;SDS011;31603;51.148;16.932;2023-07-02T02:08:34;2.72;;;1.80;;
45893;SDS011;31603;51.148;16.932;2023-07-02T02:11:01;5.05;;;1.77;;
45893;SDS011;31603;51.148;16.932;2023-07-02T02:13:28;3.72;;;1.65;;
45893;SDS011;31603;51.148;16.932;2023-07-02T02:15:54;1.95;;;1.50;;
45893;SDS011;31603;51.148;16.932;2023-07-02T02:18:20;4.93;;;1.70;;
45893;SDS011;31603;51.148;16.932;2023-07-02T02:20:47;4.03;;;1.52;;
45893;SDS011;31603;51.148;16.932;2023-07-02T02:23:13;4.15;;;1.77;;
45893;SDS011;31603;51.148;16.932;2023-07-02T02:25:39;4.68;;;1.80;;
45893;SDS011;31603;51.148;16.932;2023-07-02T02:28:07;2.55;;;1.90;;
45893;SDS011;31603;51.148;16.932;2023-07-02T02:30:33;4.10;;;1.83;;
45893;SDS011;31603;51.148;16.932;2023-07-02T02:32:59;5.30;;;1.70;;
45893;SDS011;31603;51.148;16.932;2023-07-02T02:35:25;5.35;;;1.45;;
45893;SDS011;31603;51.148;16.932;2023-07-02T02:37:52;2.13;;;1.50;;
45893;SDS011;31603;51.148;16.932;2023-07-02T02:40:18;1.23;;;1.00;;
45893;SDS011;31603;51.148;16.932;2023-07-02T02:42:45;1.52;;;1.35;;
45893;SDS011;31603;51.148;16.932;2023-07-02T02:45:12;2.15;;;1.27;;
45893;SDS011;31603;51.148;16.932;2023-07-02T02:47:39;1.25;;;1.15;;
45893;SDS011;31603;51.148;16.932;2023-07-02T02:50:05;1.83;;;1.15;;
45893;SDS011;31603;51.148;16.932;2023-07-02T02:52:32;2.08;;;1.27;;
45893;SDS011;31603;51.148;16.932;2023-07-02T02:54:58;1.55;;;1.20;;
45893;SDS011;31603;51.148;16.932;2023-07-02T02:57:25;2.25;;;1.00;;
45893;SDS011;31603;51.148;16.932;2023-07-02T02:59:51;3.05;;;1.58;;
45893;SDS011;31603;51.148;16.932;2023-07-02T03:02:18;1.27;;;1.10;;
45893;SDS011;31603;51.148;16.932;2023-07-02T03:04:45;2.55;;;0.98;;
45893;SDS011;31603;51.148;16.932;2023-07-02T03:07:14;3.25;;;1.27;;
45893;SDS011;31603;51.148;16.932;2023-07-02T03:09:40;3.00;;;1.15;;
45893;SDS011;31603;51.148;16.932;2023-07-02T03:12:07;1.40;;;0.90;;
45893;SDS011;31603;51.148;16.932;2023-07-02T03:14:33;1.70;;;1.30;;
45893;SDS011;31603;51.148;16.932;2023-07-02T03:16:59;1.42;;;1.20;;
45893;SDS011;31603;51.148;16.932;2023-07-02T03:19:27;3.00;;;1.33;;
45893;SDS011;31603;51.148;16.932;2023-07-02T03:21:54;1.40;;;1.00;;
45893;SDS011;31603;51.148;16.932;2023-07-02T03:24:20;1.00;;;0.90;;
45893;SDS011;31603;51.148;16.932;2023-07-02T03:26:47;1.50;;;1.00;;
45893;SDS011;31603;51.148;16.932;2023-07-02T03:29:13;1.38;;;1.10;;
45893;SDS011;31603;51.148;16.932;2023-07-02T03:31:39;2.78;;;1.23;;
45893;SDS011;31603;51.148;16.932;2023-07-02T03:34:06;1.40;;;1.23;;
45893;SDS011;31603;51.148;16.932;2023-07-02T03:36:34;1.30;;;1.02;;
45893;SDS011;31603;51.148;16.932;2023-07-02T03:39:00;2.55;;;1.17;;
45893;SDS011;31603;51.148;16.932;2023-07-02T03:41:27;1.70;;;1.33;;
45893;SDS011;31603;51.148;16.932;2023-07-02T03:43:53;4.13;;;1.48;;
45893;SDS011;31603;51.148;16.932;2023-07-02T03:46:20;2.28;;;1.40;;
45893;SDS011;31603;51.148;16.932;2023-07-02T03:48:46;2.60;;;1.33;;
45893;SDS011;31603;51.148;16.932;2023-07-02T03:51:12;2.28;;;1.20;;
45893;SDS011;31603;51.148;16.932;2023-07-02T03:53:40;2.33;;;1.30;;
45893;SDS011;31603;51.148;16.932;2023-07-02T03:56:07;3.42;;;1.60;;
45893;SDS011;31603;51.148;16.932;2023-07-02T03:58:33;4.00;;;1.67;;
45893;SDS011;31603;51.148;16.932;2023-07-02T04:00:59;2.70;;;1.70;;
45893;SDS011;31603;51.148;16.932;2023-07-02T04:03:25;2.45;;;1.60;;
45893;SDS011;31603;51.148;16.932;2023-07-02T04:05:52;4.68;;;1.83;;
45893;SDS011;31603;51.148;16.932;2023-07-02T04:08:18;2.78;;;1.50;;
45893;SDS011;31603;51.148;16.932;2023-07-02T04:10:47;2.40;;;1.50;;
45893;SDS011;31603;51.148;16.932;2023-07-02T04:13:13;1.92;;;1.50;;
45893;SDS011;31603;51.148;16.932;2023-07-02T04:15:39;2.85;;;1.77;;
45893;SDS011;31603;51.148;16.932;2023-07-02T04:18:06;2.65;;;1.73;;
45893;SDS011;31603;51.148;16.932;2023-07-02T04:20:32;2.15;;;1.30;;
45893;SDS011;31603;51.148;16.932;2023-07-02T04:22:58;2.55;;;1.52;;
45893;SDS011;31603;51.148;16.932;2023-07-02T04:25:24;2.97;;;1.70;;
45893;SDS011;31603;51.148;16.932;2023-07-02T04:27:52;2.17;;;1.60;;
45893;SDS011;31603;51.148;16.932;2023-07-02T04:30:21;3.85;;;1.52;;
45893;SDS011;31603;51.148;16.932;2023-07-02T04:32:48;2.70;;;1.70;;
45893;SDS011;31603;51.148;16.932;2023-07-02T04:35:14;2.50;;;1.70;;
45893;SDS011;31603;51.148;16.932;2023-07-02T04:37:41;2.22;;;1.60;;
45893;SDS011;31603;51.148;16.932;2023-07-02T04:40:07;2.42;;;1.42;;
45893;SDS011;31603;51.148;16.932;2023-07-02T04:42:35;2.72;;;1.80;;
45893;SDS011;31603;51.148;16.932;2023-07-02T04:45:04;3.15;;;1.90;;
45893;SDS011;31603;51.148;16.932;2023-07-02T04:47:31;1.50;;;1.40;;
45893;SDS011;31603;51.148;16.932;2023-07-02T04:49:57;1.92;;;1.60;;
45893;SDS011;31603;51.148;16.932;2023-07-02T04:52:24;1.83;;;1.58;;
45893;SDS011;31603;51.148;16.932;2023-07-02T04:54:50;2.67;;;1.50;;
45893;SDS011;31603;51.148;16.932;2023-07-02T04:57:16;3.35;;;1.90;;
45893;SDS011;31603;51.148;16.932;2023-07-02T04:59:42;2.85;;;1.80;;
45893;SDS011;31603;51.148;16.932;2023-07-02T05:02:10;4.72;;;1.80;;
45893;SDS011;31603;51.148;16.932;2023-07-02T05:04:36;2.47;;;1.48;;
45893;SDS011;31603;51.148;16.932;2023-07-02T05:07:03;2.38;;;1.65;;
45893;SDS011;31603;51.148;16.932;2023-07-02T05:09:30;3.65;;;1.70;;
45893;SDS011;31603;51.148;16.932;2023-07-02T05:11:56;2.08;;;1.70;;
45893;SDS011;31603;51.148;16.932;2023-07-02T05:14:22;2.55;;;1.70;;
45893;SDS011;31603;51.148;16.932;2023-07-02T05:16:49;3.80;;;2.03;;
45893;SDS011;31603;51.148;16.932;2023-07-02T05:19:16;4.32;;;1.70;;
45893;SDS011;31603;51.148;16.932;2023-07-02T05:21:42;2.30;;;1.90;;
45893;SDS011;31603;51.148;16.932;2023-07-02T05:24:09;2.15;;;1.90;;
45893;SDS011;31603;51.148;16.932;2023-07-02T05:26:35;2.22;;;1.80;;
45893;SDS011;31603;51.148;16.932;2023-07-02T05:29:01;1.95;;;1.65;;
45893;SDS011;31603;51.148;16.932;2023-07-02T05:31:28;2.42;;;1.80;;
45893;SDS011;31603;51.148;16.932;2023-07-02T05:33:54;4.82;;;1.85;;
45893;SDS011;31603;51.148;16.932;2023-07-02T05:36:22;3.65;;;1.80;;
45893;SDS011;31603;51.148;16.932;2023-07-02T05:38:48;2.35;;;1.70;;
45893;SDS011;31603;51.148;16.932;2023-07-02T05:41:17;3.28;;;1.90;;
45893;SDS011;31603;51.148;16.932;2023-07-02T05:43:44;2.33;;;2.10;;
45893;SDS011;31603;51.148;16.932;2023-07-02T05:46:10;2.60;;;2.10;;
45893;SDS011;31603;51.148;16.932;2023-07-02T05:48:37;2.90;;;1.95;;
45893;SDS011;31603;51.148;16.932;2023-07-02T05:51:03;3.05;;;2.13;;
45893;SDS011;31603;51.148;16.932;2023-07-02T05:53:31;3.20;;;2.15;;
45893;SDS011;31603;51.148;16.932;2023-07-02T05:55:58;2.22;;;1.88;;
45893;SDS011;31603;51.148;16.932;2023-07-02T05:58:24;2.30;;;2.05;;
45893;SDS011;31603;51.148;16.932;2023-07-02T06:00:51;3.42;;;2.03;;
45893;SDS011;31603;51.148;16.932;2023-07-02T06:03:17;2.92;;;2.10;;
45893;SDS011;31603;51.148;16.932;2023-07-02T06:05:45;3.05;;;2.20;;
45893;SDS011;31603;51.148;16.932;2023-07-02T06:08:12;2.55;;;1.85;;
45893;SDS011;31603;51.148;16.932;2023-07-02T06:10:39;3.13;;;2.25;;
45893;SDS011;31603;51.148;16.932;2023-07-02T06:13:06;3.13;;;1.90;;
45893;SDS011;31603;51.148;16.932;2023-07-02T06:15:32;3.55;;;1.80;;
45893;SDS011;31603;51.148;16.932;2023-07-02T06:18:01;4.68;;;1.80;;
45893;SDS011;31603;51.148;16.932;2023-07-02T06:20:27;3.35;;;2.13;;
45893;SDS011;31603;51.148;16.932;2023-07-02T06:22:53;2.08;;;1.65;;
45893;SDS011;31603;51.148;16.932;2023-07-02T06:25:20;3.50;;;2.28;;
45893;SDS011;31603;51.148;16.932;2023-07-02T06:27:47;4.30;;;2.00;;
45893;SDS011;31603;51.148;16.932;2023-07-02T06:30:14;3.63;;;2.03;;
45893;SDS011;31603;51.148;16.932;2023-07-02T06:32:40;2.60;;;2.17;;
45893;SDS011;31603;51.148;16.932;2023-07-02T06:35:06;2.50;;;2.30;;
45893;SDS011;31603;51.148;16.932;2023-07-02T06:37:33;2.15;;;1.95;;
45893;SDS011;31603;51.148;16.932;2023-07-02T06:39:59;4.82;;;2.30;;
45893;SDS011;31603;51.148;16.932;2023-07-02T06:42:25;3.10;;;2.40;;
45893;SDS011;31603;51.148;16.932;2023-07-02T06:44:53;3.47;;;2.58;;
45893;SDS011;31603;51.148;16.932;2023-07-02T06:47:19;4.07;;;2.63;;
45893;SDS011;31603;51.148;16.932;2023-07-02T06:49:45;3.95;;;2.70;;
45893;SDS011;31603;51.148;16.932;2023-07-02T06:52:11;3.22;;;2.30;;
45893;SDS011;31603;51.148;16.932;2023-07-02T06:54:38;3.85;;;2.40;;
45893;SDS011;31603;51.148;16.932;2023-07-02T06:57:05;3.53;;;2.47;;
45893;SDS011;31603;51.148;16.932;2023-07-02T06:59:31;2.65;;;2.28;;
45893;SDS011;31603;51.148;16.932;2023-07-02T07:01:59;3.38;;;2.13;;
45893;SDS011;31603;51.148;16.932;2023-07-02T07:04:25;2.88;;;2.05;;
45893;SDS011;31603;51.148;16.932;2023-07-02T07:06:53;3.13;;;2.28;;
45893;SDS011;31603;51.148;16.932;2023-07-02T07:09:20;5.35;;;2.60;;
45893;SDS011;31603;51.148;16.932;2023-07-02T07:11:46;3.42;;;2.60;;
45893;SDS011;31603;51.148;16.932;2023-07-02T07:14:12;2.42;;;2.17;;
45893;SDS011;31603;51.148;16.932;2023-07-02T07:16:39;4.40;;;2.45;;
45893;SDS011;31603;51.148;16.932;2023-07-02T07:19:06;2.20;;;2.00;;
45893;SDS011;31603;51.148;16.932;2023-07-02T07:21:33;2.92;;;2.38;;
45893;SDS011;31603;51.148;16.932;2023-07-02T07:23:59;2.47;;;2.28;;
45893;SDS011;31603;51.148;16.932;2023-07-02T07:26:26;4.60;;;2.67;;
45893;SDS011;31603;51.148;16.932;2023-07-02T07:28:52;3.72;;;2.28;;
45893;SDS011;31603;51.148;16.932;2023-07-02T07:31:21;3.22;;;2.40;;
45893;SDS011;31603;51.148;16.932;2023-07-02T07:33:47;4.53;;;2.53;;
45893;SDS011;31603;51.148;16.932;2023-07-02T07:36:15;3.55;;;2.13;;
45893;SDS011;31603;51.148;16.932;2023-07-02T07:38:42;2.30;;;2.10;;
45893;SDS011;31603;51.148;16.932;2023-07-02T07:41:09;3.42;;;2.20;;
45893;SDS011;31603;51.148;16.932;2023-07-02T07:43:35;2.20;;;2.00;;
45893;SDS011;31603;51.148;16.932;2023-07-02T07:46:01;2.47;;;2.25;;
45893;SDS011;31603;51.148;16.932;2023-07-02T07:48:28;3.35;;;2.22;;
45893;SDS011;31603;51.148;16.932;2023-07-02T07:50:54;2.75;;;2.40;;
45893;SDS011;31603;51.148;16.932;2023-07-02T07:53:22;2.35;;;2.15;;
45893;SDS011;31603;51.148;16.932;2023-07-02T07:55:48;3.03;;;2.00;;
45893;SDS011;31603;51.148;16.932;2023-07-02T07:58:15;2.47;;;2.15;;
45893;SDS011;31603;51.148;16.932;2023-07-02T08:00:41;4.95;;;2.42;;
45893;SDS011;31603;51.148;16.932;2023-07-02T08:03:09;4.10;;;2.70;;
45893;SDS011;31603;51.148;16.932;2023-07-02T08:05:36;3.65;;;2.58;;
45893;SDS011;31603;51.148;16.932;2023-07-02T08:08:02;2.53;;;2.33;;
45893;SDS011;31603;51.148;16.932;2023-07-02T08:10:30;2.75;;;2.40;;
45893;SDS011;31603;51.148;16.932;2023-07-02T08:12:57;2.75;;;2.40;;
45893;SDS011;31603;51.148;16.932;2023-07-02T08:15:23;2.40;;;2.20;;
45893;SDS011;31603;51.148;16.932;2023-07-02T08:17:51;3.28;;;2.88;;
45893;SDS011;31603;51.148;16.932;2023-07-02T08:20:19;3.22;;;2.70;;
45893;SDS011;31603;51.148;16.932;2023-07-02T08:22:45;2.92;;;2.60;;
45893;SDS011;31603;51.148;16.932;2023-07-02T08:25:12;4.47;;;2.63;;
45893;SDS011;31603;51.148;16.932;2023-07-02T08:27:39;3.85;;;2.67;;
45893;SDS011;31603;51.148;16.932;2023-07-02T08:30:06;6.55;;;3.72;;
45893;SDS011;31603;51.148;16.932;2023-07-02T08:32:33;5.90;;;3.15;;
45893;SDS011;31603;51.148;16.932;2023-07-02T08:34:59;3.88;;;3.50;;
45893;SDS011;31603;51.148;16.932;2023-07-02T08:37:25;3.50;;;3.20;;
45893;SDS011;31603;51.148;16.932;2023-07-02T08:39:52;5.43;;;3.47;;
45893;SDS011;31603;51.148;16.932;2023-07-02T08:42:18;4.35;;;3.60;;
45893;SDS011;31603;51.148;16.932;2023-07-02T08:44:47;3.67;;;3.05;;
45893;SDS011;31603;51.148;16.932;2023-07-02T08:47:13;4.15;;;3.53;;
45893;SDS011;31603;51.148;16.932;2023-07-02T08:49:41;4.55;;;3.55;;
45893;SDS011;31603;51.148;16.932;2023-07-02T08:52:08;8.00;;;3.67;;
45893;SDS011;31603;51.148;16.932;2023-07-02T08:54:34;4.35;;;3.20;;
45893;SDS011;31603;51.148;16.932;2023-07-02T08:57:00;3.63;;;3.13;;
45893;SDS011;31603;51.148;16.932;2023-07-02T08:59:31;3.33;;;3.03;;
45893;SDS011;31603;51.148;16.932;2023-07-02T09:01:58;3.13;;;2.83;;
45893;SDS011;31603;51.148;16.932;2023-07-02T09:04:25;3.05;;;2.72;;
45893;SDS011;31603;51.148;16.932;2023-07-02T09:07:02;3.25;;;2.67;;
45893;SDS011;31603;51.148;16.932;2023-07-02T09:09:29;4.72;;;2.47;;
45893;SDS011;31603;51.148;16.932;2023-07-02T09:11:55;4.70;;;3.10;;
45893;SDS011;31603;51.148;16.932;2023-07-02T09:14:25;3.35;;;2.90;;
45893;SDS011;31603;51.148;16.932;2023-07-02T09:17:02;3.35;;;2.90;;
45893;SDS011;31603;51.148;16.932;2023-07-02T09:19:28;3.80;;;2.78;;
45893;SDS011;31603;51.148;16.932;2023-07-02T09:21:56;2.88;;;2.63;;
45893;SDS011;31603;51.148;16.932;2023-07-02T09:24:24;3.17;;;2.75;;
45893;SDS011;31603;51.148;16.932;2023-07-02T09:26:51;4.93;;;2.60;;
45893;SDS011;31603;51.148;16.932;2023-07-02T09:29:18;3.70;;;2.88;;
45893;SDS011;31603;51.148;16.932;2023-07-02T09:31:45;2.97;;;2.58;;
45893;SDS011;31603;51.148;16.932;2023-07-02T09:34:13;5.93;;;2.45;;
45893;SDS011;31603;51.148;16.932;2023-07-02T09:36:40;2.90;;;2.50;;
45893;SDS011;31603;51.148;16.932;2023-07-02T09:39:07;2.90;;;2.40;;
45893;SDS011;31603;51.148;16.932;2023-07-02T09:41:33;2.90;;;2.60;;
45893;SDS011;31603;51.148;16.932;2023-07-02T09:44:00;3.83;;;2.53;;
45893;SDS011;31603;51.148;16.932;2023-07-02T09:46:26;3.00;;;2.33;;
45893;SDS011;31603;51.148;16.932;2023-07-02T09:48:53;3.20;;;2.38;;
45893;SDS011;31603;51.148;16.932;2023-07-02T09:51:21;3.08;;;2.40;;
45893;SDS011;31603;51.148;16.932;2023-07-02T09:53:47;4.65;;;2.40;;
45893;SDS011;31603;51.148;16.932;2023-07-02T09:56:14;2.45;;;2.22;;
45893;SDS011;31603;51.148;16.932;2023-07-02T09:58:40;2.67;;;2.28;;
45893;SDS011;31603;51.148;16.932;2023-07-02T10:01:06;4.35;;;2.50;;
45893;SDS011;31603;51.148;16.932;2023-07-02T10:03:33;2.53;;;2.30;;
45893;SDS011;31603;51.148;16.932;2023-07-02T10:06:03;2.30;;;2.10;;
45893;SDS011;31603;51.148;16.932;2023-07-02T10:08:30;2.97;;;2.25;;
45893;SDS011;31603;51.148;16.932;2023-07-02T10:11:05;2.47;;;2.28;;
45893;SDS011;31603;51.148;16.932;2023-07-02T10:13:32;2.58;;;2.30;;
45893;SDS011;31603;51.148;16.932;2023-07-02T10:16:02;3.28;;;1.88;;
45893;SDS011;31603;51.148;16.932;2023-07-02T10:18:32;3.10;;;2.10;;
45893;SDS011;31603;51.148;16.932;2023-07-02T10:20:59;3.75;;;1.77;;
45893;SDS011;31603;51.148;16.932;2023-07-02T10:23:36;1.92;;;1.67;;
45893;SDS011;31603;51.148;16.932;2023-07-02T10:26:13;2.10;;;1.90;;
45893;SDS011;31603;51.148;16.932;2023-07-02T10:28:40;2.28;;;1.98;;
45893;SDS011;31603;51.148;16.932;2023-07-02T10:31:16;4.97;;;2.80;;
45893;SDS011;31603;51.148;16.932;2023-07-02T10:33:43;11.90;;;3.25;;
45893;SDS011;31603;51.148;16.932;2023-07-02T10:36:16;6.10;;;2.58;;
45893;SDS011;31603;51.148;16.932;2023-07-02T10:38:45;4.10;;;2.50;;
45893;SDS011;31603;51.148;16.932;2023-07-02T10:41:11;3.03;;;2.08;;
45893;SDS011;31603;51.148;16.932;2023-07-02T10:43:37;3.15;;;2.10;;
45893;SDS011;31603;51.148;16.932;2023-07-02T10:46:04;2.45;;;2.08;;
45893;SDS011;31603;51.148;16.932;2023-07-02T10:48:30;3.08;;;2.50;;
45893;SDS011;31603;51.148;16.932;2023-07-02T10:50:57;2.28;;;2.08;;
45893;SDS011;31603;51.148;16.932;2023-07-02T10:53:23;3.60;;;1.73;;
45893;SDS011;31603;51.148;16.932;2023-07-02T10:55:54;2.75;;;1.95;;
45893;SDS011;31603;51.148;16.932;2023-07-02T10:58:21;3.22;;;2.00;;
45893;SDS011;31603;51.148;16.932;2023-07-02T11:00:48;4.03;;;2.03;;
45893;SDS011;31603;51.148;16.932;2023-07-02T11:03:17;2.30;;;1.80;;
45893;SDS011;31603;51.148;16.932;2023-07-02T11:05:45;3.50;;;2.60;;
45893;SDS011;31603;51.148;16.932;2023-07-02T11:08:12;2.60;;;2.10;;
45893;SDS011;31603;51.148;16.932;2023-07-02T11:10:38;2.47;;;2.03;;
45893;SDS011;31603;51.148;16.932;2023-07-02T11:13:13;3.83;;;2.40;;
45893;SDS011;31603;51.148;16.932;2023-07-02T11:15:39;3.47;;;2.22;;
45893;SDS011;31603;51.148;16.932;2023-07-02T11:18:09;2.63;;;2.35;;
45893;SDS011;31603;51.148;16.932;2023-07-02T11:20:36;2.78;;;2.17;;
45893;SDS011;31603;51.148;16.932;2023-07-02T11:23:02;3.53;;;2.25;;
45893;SDS011;31603;51.148;16.932;2023-07-02T11:25:29;3.78;;;2.38;;
45893;SDS011;31603;51.148;16.932;2023-07-02T11:28:01;4.65;;;2.60;;
45893;SDS011;31603;51.148;16.932;2023-07-02T11:30:29;9.18;;;3.78;;
45893;SDS011;31603;51.148;16.932;2023-07-02T11:33:00;12.43;;;4.25;;
45893;SDS011;31603;51.148;16.932;2023-07-02T11:35:33;13.73;;;3.30;;
45893;SDS011;31603;51.148;16.932;2023-07-02T11:37:59;22.38;;;3.90;;
45893;SDS011;31603;51.148;16.932;2023-07-02T11:40:26;2.22;;;1.63;;
45893;SDS011;31603;51.148;16.932;2023-07-02T11:42:52;2.72;;;1.92;;
45893;SDS011;31603;51.148;16.932;2023-07-02T11:45:18;2.00;;;1.35;;
45893;SDS011;31603;51.148;16.932;2023-07-02T11:47:46;2.22;;;1.90;;
45893;SDS011;31603;51.148;16.932;2023-07-02T11:50:13;1.65;;;1.50;;
45893;SDS011;31603;51.148;16.932;2023-07-02T11:52:39;2.83;;;1.63;;
45893;SDS011;31603;51.148;16.932;2023-07-02T11:55:06;2.40;;;1.77;;
45893;SDS011;31603;51.148;16.932;2023-07-02T11:57:32;2.97;;;1.60;;
45893;SDS011;31603;51.148;16.932;2023-07-02T11:59:58;2.60;;;1.70;;
45893;SDS011;31603;51.148;16.932;2023-07-02T12:02:25;2.15;;;1.42;;
45893;SDS011;31603;51.148;16.932;2023-07-02T12:04:52;4.28;;;1.80;;
45893;SDS011;31603;51.148;16.932;2023-07-02T12:07:19;3.78;;;1.90;;
45893;SDS011;31603;51.148;16.932;2023-07-02T12:09:47;3.40;;;1.60;;
45893;SDS011;31603;51.148;16.932;2023-07-02T12:12:14;2.13;;;1.55;;
45893;SDS011;31603;51.148;16.932;2023-07-02T12:14:41;1.67;;;1.50;;
45893;SDS011;31603;51.148;16.932;2023-07-02T12:17:08;1.67;;;1.55;;
45893;SDS011;31603;51.148;16.932;2023-07-02T12:19:37;1.60;;;1.48;;
45893;SDS011;31603;51.148;16.932;2023-07-02T12:22:05;1.50;;;1.30;;
45893;SDS011;31603;51.148;16.932;2023-07-02T12:24:31;3.40;;;1.33;;
45893;SDS011;31603;51.148;16.932;2023-07-02T12:26:57;2.35;;;1.55;;
45893;SDS011;31603;51.148;16.932;2023-07-02T12:29:24;2.25;;;1.40;;
45893;SDS011;31603;51.148;16.932;2023-07-02T12:31:50;2.33;;;1.55;;
45893;SDS011;31603;51.148;16.932;2023-07-02T12:34:16;1.65;;;1.40;;
45893;SDS011;31603;51.148;16.932;2023-07-02T12:36:42;2.17;;;1.75;;
45893;SDS011;31603;51.148;16.932;2023-07-02T12:39:10;4.45;;;2.20;;
45893;SDS011;31603;51.148;16.932;2023-07-02T12:41:36;2.95;;;1.83;;
45893;SDS011;31603;51.148;16.932;2023-07-02T12:44:03;3.08;;;1.52;;
45893;SDS011;31603;51.148;16.932;2023-07-02T12:46:29;2.05;;;1.20;;
45893;SDS011;31603;51.148;16.932;2023-07-02T12:48:55;3.30;;;1.40;;
45893;SDS011;31603;51.148;16.932;2023-07-02T12:51:22;2.25;;;1.25;;
45893;SDS011;31603;51.148;16.932;2023-07-02T12:53:48;3.42;;;1.55;;
45893;SDS011;31603;51.148;16.932;2023-07-02T12:56:15;1.40;;;1.30;;
45893;SDS011;31603;51.148;16.932;2023-07-02T12:58:42;2.70;;;1.98;;
45893;SDS011;31603;51.148;16.932;2023-07-02T13:01:08;2.03;;;1.42;;
45893;SDS011;31603;51.148;16.932;2023-07-02T13:03:34;2.38;;;1.58;;
45893;SDS011;31603;51.148;16.932;2023-07-02T13:06:01;1.63;;;1.33;;
45893;SDS011;31603;51.148;16.932;2023-07-02T13:08:27;3.67;;;1.98;;
45893;SDS011;31603;51.148;16.932;2023-07-02T13:10:53;4.50;;;1.70;;
45893;SDS011;31603;51.148;16.932;2023-07-02T13:13:21;1.75;;;1.35;;
45893;SDS011;31603;51.148;16.932;2023-07-02T13:15:47;2.53;;;1.40;;
45893;SDS011;31603;51.148;16.932;2023-07-02T13:18:13;1.77;;;1.40;;
45893;SDS011;31603;51.148;16.932;2023-07-02T13:20:40;2.40;;;1.33;;
45893;SDS011;31603;51.148;16.932;2023-07-02T13:23:06;4.05;;;1.65;;
45893;SDS011;31603;51.148;16.932;2023-07-02T13:25:32;4.03;;;2.53;;
45893;SDS011;31603;51.148;16.932;2023-07-02T13:27:58;46.10;;;5.40;;
45893;SDS011;31603;51.148;16.932;2023-07-02T13:30:26;7.30;;;3.47;;
45893;SDS011;31603;51.148;16.932;2023-07-02T13:32:53;4.20;;;2.85;;
45893;SDS011;31603;51.148;16.932;2023-07-02T13:35:19;3.65;;;2.30;;
45893;SDS011;31603;51.148;16.932;2023-07-02T13:37:47;6.15;;;2.45;;
45893;SDS011;31603;51.148;16.932;2023-07-02T13:40:13;4.72;;;2.35;;
45893;SDS011;31603;51.148;16.932;2023-07-02T13:42:41;2.90;;;2.30;;
45893;SDS011;31603;51.148;16.932;2023-07-02T13:45:08;3.33;;;2.10;;
45893;SDS011;31603;51.148;16.932;2023-07-02T13:47:36;2.33;;;2.08;;
45893;SDS011;31603;51.148;16.932;2023-07-02T13:50:03;2.67;;;1.70;;
45893;SDS011;31603;51.148;16.932;2023-07-02T13:52:29;2.65;;;2.00;;
45893;SDS011;31603;51.148;16.932;2023-07-02T13:54:55;4.82;;;2.20;;
45893;SDS011;31603;51.148;16.932;2023-07-02T13:57:24;3.05;;;2.00;;
45893;SDS011;31603;51.148;16.932;2023-07-02T13:59:51;2.33;;;1.80;;
45893;SDS011;31603;51.148;16.932;2023-07-02T14:02:17;4.15;;;2.50;;
45893;SDS011;31603;51.148;16.932;2023-07-02T14:04:44;5.05;;;2.58;;
45893;SDS011;31603;51.148;16.932;2023-07-02T14:07:11;3.13;;;2.22;;
45893;SDS011;31603;51.148;16.932;2023-07-02T14:09:37;4.20;;;2.88;;
45893;SDS011;31603;51.148;16.932;2023-07-02T14:12:04;5.32;;;3.28;;
45893;SDS011;31603;51.148;16.932;2023-07-02T14:14:30;6.45;;;2.92;;
45893;SDS011;31603;51.148;16.932;2023-07-02T14:16:58;13.25;;;3.20;;
45893;SDS011;31603;51.148;16.932;2023-07-02T14:19:26;35.83;;;4.72;;
45893;SDS011;31603;51.148;16.932;2023-07-02T14:21:56;56.05;;;8.07;;
45893;SDS011;31603;51.148;16.932;2023-07-02T14:24:22;5.05;;;1.60;;
45893;SDS011;31603;51.148;16.932;2023-07-02T14:26:49;4.32;;;1.65;;
45893;SDS011;31603;51.148;16.932;2023-07-02T14:29:15;2.83;;;1.83;;
45893;SDS011;31603;51.148;16.932;2023-07-02T14:31:41;2.00;;;1.50;;